This is the latest recevied weather packets stored in our database for station/object K1AWR. If no packets are shown the sender has not sent any weather packets the latest 1 day(s).
| Time | Temp. | Humidity | Pressure | Rain* | Wind** | Luminosity | Snow |
|---|---|---|---|---|---|---|---|
| 1778038979 | 17.22° C | 67% | 1010.4 hPa | 0 mm | 0.89 m/s, 222° | 0 W/m² | - |
| 1778038676 | 17.22° C | 66% | 1010.7 hPa | 0 mm | 0.45 m/s, 243° | 0 W/m² | - |
| 1778038373 | 17.22° C | 66% | 1010.6 hPa | 0 mm | 0.45 m/s, 212° | 0 W/m² | - |
| 1778038070 | 17.22° C | 66% | 1010.8 hPa | 0 mm | 0.89 m/s, 197° | 0 W/m² | - |
| 1778037767 | 17.22° C | 66% | 1010.7 hPa | 0 mm | 0 m/s | 0 W/m² | - |
| 1778037463 | 17.22° C | 66% | 1010.6 hPa | 0 mm | 0.89 m/s, 162° | 0 W/m² | - |
| 1778037161 | 17.22° C | 66% | 1010.5 hPa | 0 mm | 2.24 m/s, 155° | 0 W/m² | - |
| 1778036859 | 17.22° C | 66% | 1010.6 hPa | 0 mm | 0.89 m/s, 153° | 0 W/m² | - |
| 1778036556 | 17.22° C | 66% | 1010.7 hPa | 0 mm | 0.45 m/s, 163° | 0 W/m² | - |
| 1778036253 | 17.22° C | 66% | 1010.6 hPa | 0 mm | 0 m/s | 0 W/m² | - |
| 1778035950 | 17.22° C | 66% | 1010.5 hPa | 0 mm | 0.89 m/s, 11° | 0 W/m² | - |
| 1778035646 | 17.78° C | 65% | 1010.5 hPa | 0 mm | 0.45 m/s, 189° | 0 W/m² | - |
| 1778035343 | 17.78° C | 65% | 1010.5 hPa | 0 mm | 0.89 m/s, 188° | 0 W/m² | - |
| 1778035039 | 17.78° C | 65% | 1010.6 hPa | 0 mm | 0.89 m/s, 198° | 0 W/m² | - |
| 1778034737 | 17.78° C | 65% | 1010.4 hPa | 0 mm | 1.34 m/s, 192° | 0 W/m² | - |
| 1778034433 | 17.78° C | 64% | 1010.5 hPa | 0 mm | 0.45 m/s, 191° | 0 W/m² | - |
| 1778034131 | 17.78° C | 64% | 1010.4 hPa | 0 mm | 1.34 m/s, 142° | 0 W/m² | - |
| 1778033829 | 17.78° C | 65% | 1010.6 hPa | 0 mm | 0.45 m/s, 196° | 0 W/m² | - |
| 1778033526 | 17.78° C | 63% | 1010.3 hPa | 0 mm | 1.34 m/s, 262° | 0 W/m² | - |
| 1778033223 | 17.78° C | 64% | 1010.6 hPa | 0 mm | 0.89 m/s, 173° | 0 W/m² | - |
| 1778032921 | 17.78° C | 64% | 1010.4 hPa | 0 mm | 0.45 m/s, 174° | 0 W/m² | - |
| 1778032618 | 17.78° C | 62% | 1010.4 hPa | 0 mm | 1.79 m/s, 171° | 0 W/m² | - |
| 1778032315 | 17.78° C | 63% | 1010.4 hPa | 0 mm | 1.34 m/s, 134° | 0 W/m² | - |
| 1778032012 | 17.78° C | 63% | 1010.6 hPa | 0 mm | 0.45 m/s, 168° | 0 W/m² | - |
| 1778031708 | 17.78° C | 62% | 1010.2 hPa | 0 mm | 1.34 m/s, 140° | 0 W/m² | - |
* Rain latest hour (hover to see other rain measurements)
** Current wind speed in m/s (hover to see current wind gust speed)